createdAt,value
2018-06-07T00:00:51.483Z,24.73
2018-06-07T00:01:51.505Z,24.73
2018-06-07T00:02:51.556Z,24.54
2018-06-07T00:03:51.562Z,24.52
2018-06-07T00:04:51.592Z,24.56
2018-06-07T00:05:51.619Z,24.71
2018-06-07T00:06:51.648Z,24.69
2018-06-07T00:07:51.675Z,24.53
2018-06-07T00:08:51.697Z,24.42
2018-06-07T00:09:51.730Z,24.34
2018-06-07T00:10:51.754Z,24.54
2018-06-07T00:11:51.785Z,24.13
2018-06-07T00:12:51.826Z,24.35
2018-06-07T00:13:51.848Z,24.61
2018-06-07T00:14:51.863Z,24.52
2018-06-07T00:15:51.896Z,24.53
2018-06-07T00:16:51.923Z,24.47
2018-06-07T00:17:51.949Z,24.56
2018-06-07T00:18:51.971Z,24.69
2018-06-07T00:19:52.002Z,24.67
2018-06-07T00:20:52.034Z,24.67
2018-06-07T00:21:52.051Z,24.82
2018-06-07T00:22:52.085Z,24.61
2018-06-07T00:23:52.106Z,24.32
2018-06-07T00:24:52.165Z,24.10
2018-06-07T00:25:52.178Z,24.24
2018-06-07T00:26:52.190Z,24.39
2018-06-07T00:27:52.284Z,24.38
2018-06-07T00:28:52.244Z,24.44
2018-06-07T00:29:52.285Z,23.97
2018-06-07T00:30:52.296Z,24.22
2018-06-07T00:31:52.365Z,24.26
2018-06-07T00:32:52.376Z,24.10
2018-06-07T00:33:52.414Z,24.31
2018-06-07T00:34:52.434Z,24.08
2018-06-07T00:35:52.457Z,24.04
2018-06-07T00:36:52.459Z,24.00
2018-06-07T00:37:52.498Z,24.22
2018-06-07T00:38:52.523Z,24.17
2018-06-07T00:39:52.543Z,24.19
2018-06-07T00:40:52.569Z,24.23
2018-06-07T00:41:52.593Z,24.17
2018-06-07T00:42:52.633Z,24.34
2018-06-07T00:43:52.660Z,24.39
2018-06-07T00:44:52.701Z,24.45
2018-06-07T00:45:52.710Z,24.32
2018-06-07T00:46:52.732Z,24.19
2018-06-07T00:47:52.767Z,24.35
2018-06-07T00:48:52.793Z,24.34
2018-06-07T00:49:52.818Z,24.29
2018-06-07T00:50:52.845Z,24.14
2018-06-07T00:51:52.880Z,24.35
2018-06-07T00:52:52.908Z,24.32
2018-06-07T00:53:52.917Z,24.12
2018-06-07T00:54:52.953Z,24.10
2018-06-07T00:55:52.979Z,24.19
2018-06-07T00:56:53.003Z,24.16
2018-06-07T00:57:53.028Z,24.17
2018-06-07T00:58:53.053Z,24.04
2018-06-07T00:59:53.080Z,24.08
2018-06-07T01:00:53.106Z,24.04
2018-06-07T01:01:53.138Z,23.97
2018-06-07T01:02:53.165Z,24.16
2018-06-07T01:03:53.191Z,24.12
2018-06-07T01:04:53.217Z,24.13
2018-06-07T01:05:53.241Z,24.17
2018-06-07T01:06:53.275Z,24.23
2018-06-07T01:07:53.296Z,24.27
2018-06-07T01:08:53.323Z,23.98
2018-06-07T01:09:53.347Z,24.08
2018-06-07T01:10:53.374Z,24.07
2018-06-07T01:11:53.410Z,23.72
2018-06-07T01:12:53.426Z,23.87
2018-06-07T01:13:53.458Z,23.95
2018-06-07T01:14:53.483Z,24.05
2018-06-07T01:15:53.510Z,24.17
2018-06-07T01:16:53.541Z,24.07
2018-06-07T01:17:53.562Z,24.19
2018-06-07T01:18:53.592Z,24.22
2018-06-07T01:19:53.620Z,24.26
2018-06-07T01:20:53.641Z,24.01
2018-06-07T01:21:53.677Z,24.13
2018-06-07T01:22:53.700Z,24.17
2018-06-07T01:23:53.720Z,24.00
2018-06-07T01:24:53.762Z,23.87
2018-06-07T01:25:53.779Z,24.10
2018-06-07T01:26:53.808Z,24.05
2018-06-07T01:27:53.828Z,24.17
2018-06-07T01:28:53.863Z,24.05
2018-06-07T01:29:53.894Z,24.08
2018-06-07T01:30:53.916Z,24.07
2018-06-07T01:31:53.938Z,24.00
2018-06-07T01:32:53.973Z,23.89
2018-06-07T01:33:53.996Z,23.95
2018-06-07T01:34:54.019Z,23.72
2018-06-07T01:35:54.055Z,23.85
2018-06-07T01:36:54.075Z,24.07
2018-06-07T01:37:54.102Z,24.07
2018-06-07T01:38:54.127Z,23.85
2018-06-07T01:39:54.150Z,23.87
2018-06-07T01:40:54.175Z,24.12
2018-06-07T01:41:54.208Z,24.10
2018-06-07T01:42:54.237Z,24.20
2018-06-07T01:43:54.265Z,24.07
2018-06-07T01:44:54.284Z,24.13
2018-06-07T01:45:54.316Z,23.98
2018-06-07T01:46:54.345Z,23.89
2018-06-07T01:47:54.368Z,23.75
2018-06-07T01:48:54.394Z,23.70
2018-06-07T01:49:54.420Z,23.64
2018-06-07T01:50:54.449Z,23.77
2018-06-07T01:51:54.475Z,23.72
2018-06-07T01:52:54.495Z,23.58
2018-06-07T01:53:54.527Z,23.79
2018-06-07T01:54:54.557Z,23.71
2018-06-07T01:55:54.577Z,23.72
2018-06-07T01:56:54.602Z,23.62
2018-06-07T01:57:54.637Z,23.49
2018-06-07T01:58:54.660Z,23.49
2018-06-07T01:59:54.691Z,23.67
2018-06-07T02:00:54.713Z,23.55
2018-06-07T02:01:54.736Z,23.32
2018-06-07T02:02:54.768Z,23.43
2018-06-07T02:03:54.794Z,23.53
2018-06-07T02:04:54.831Z,23.52
2018-06-07T02:05:54.850Z,23.64
2018-06-07T02:06:54.874Z,23.60
2018-06-07T02:07:54.895Z,23.67
2018-06-07T02:08:54.925Z,23.62
2018-06-07T02:09:54.953Z,23.68
2018-06-07T02:10:54.978Z,23.38
2018-06-07T02:11:55.001Z,23.49
2018-06-07T02:12:55.027Z,23.43
2018-06-07T02:13:55.059Z,23.46
2018-06-07T02:14:55.088Z,23.71
2018-06-07T02:15:55.108Z,23.67
2018-06-07T02:16:55.133Z,23.62
2018-06-07T02:17:55.157Z,23.64
2018-06-07T02:18:55.193Z,23.68
2018-06-07T02:19:55.238Z,23.68
2018-06-07T02:20:55.242Z,23.46
2018-06-07T02:21:55.268Z,23.49
2018-06-07T02:22:55.292Z,23.43
2018-06-07T02:23:55.326Z,23.19
2018-06-07T02:24:55.351Z,23.24
2018-06-07T02:25:55.378Z,23.24
2018-06-07T02:26:55.398Z,23.27
2018-06-07T02:27:55.428Z,23.35
2018-06-07T02:28:55.455Z,23.49
2018-06-07T02:29:55.482Z,23.47
2018-06-07T02:30:55.507Z,23.57
2018-06-07T02:31:55.552Z,23.55
2018-06-07T02:32:55.559Z,23.64
2018-06-07T02:33:55.598Z,23.64
2018-06-07T02:34:55.614Z,23.57
2018-06-07T02:35:55.641Z,23.46
2018-06-07T02:36:55.664Z,23.58
2018-06-07T02:37:55.701Z,23.47
2018-06-07T02:38:55.718Z,23.38
2018-06-07T02:39:55.747Z,23.42
2018-06-07T02:40:55.770Z,23.70
2018-06-07T02:41:55.798Z,23.42
2018-06-07T02:42:55.825Z,23.50
2018-06-07T02:43:55.850Z,23.46
2018-06-07T02:44:55.891Z,23.38
2018-06-07T02:45:55.903Z,23.53
2018-06-07T02:46:55.928Z,23.52
2018-06-07T02:47:55.963Z,23.61
2018-06-07T02:48:55.979Z,23.47
2018-06-07T02:49:56.012Z,23.39
2018-06-07T02:50:56.030Z,23.22
2018-06-07T02:51:56.060Z,23.39
2018-06-07T02:52:56.080Z,23.39
2018-06-07T02:53:56.106Z,23.32
2018-06-07T02:54:56.146Z,23.31
2018-06-07T02:55:56.165Z,23.39
2018-06-07T02:56:56.191Z,23.39
2018-06-07T02:57:56.221Z,23.31
2018-06-07T02:58:56.237Z,23.45
2018-06-07T02:59:56.272Z,23.39
2018-06-07T03:00:56.297Z,23.27
2018-06-07T03:01:56.324Z,23.26
2018-06-07T03:02:56.349Z,23.45
2018-06-07T03:03:56.410Z,23.62
2018-06-07T03:04:56.407Z,23.61
2018-06-07T03:05:56.434Z,23.64
2018-06-07T03:06:56.452Z,23.71
2018-06-07T03:07:56.479Z,23.43
2018-06-07T03:08:56.505Z,23.29
2018-06-07T03:09:56.568Z,23.49
2018-06-07T03:10:56.561Z,23.46
2018-06-07T03:11:56.589Z,23.60
2018-06-07T03:12:56.611Z,23.70
2018-06-07T03:13:56.634Z,23.64
2018-06-07T03:14:56.656Z,23.62
2018-06-07T03:15:56.707Z,23.34
2018-06-07T03:16:56.718Z,23.29
2018-06-07T03:17:56.744Z,23.07
2018-06-07T03:18:56.780Z,23.42
2018-06-07T03:19:56.790Z,23.42
2018-06-07T03:20:56.823Z,23.40
2018-06-07T03:21:56.849Z,23.20
2018-06-07T03:22:56.871Z,23.12
2018-06-07T03:23:56.906Z,23.34
2018-06-07T03:24:56.921Z,23.14
2018-06-07T03:25:56.954Z,23.45
2018-06-07T03:26:56.980Z,23.50
2018-06-07T03:27:57.005Z,23.50
2018-06-07T03:28:57.035Z,23.60
2018-06-07T03:29:57.059Z,23.46
2018-06-07T03:30:57.095Z,23.45
2018-06-07T03:31:57.115Z,23.20
2018-06-07T03:32:57.137Z,23.38
2018-06-07T03:33:57.163Z,23.46
2018-06-07T03:34:57.183Z,23.47
2018-06-07T03:35:57.208Z,23.45
2018-06-07T03:36:57.243Z,23.64
2018-06-07T03:37:57.275Z,23.19
2018-06-07T03:38:57.293Z,23.17
2018-06-07T03:39:57.338Z,23.26
2018-06-07T03:40:57.344Z,23.22
2018-06-07T03:41:57.382Z,23.34
2018-06-07T03:42:57.400Z,23.40
2018-06-07T03:43:57.427Z,23.49
2018-06-07T03:44:57.451Z,23.39
2018-06-07T03:45:57.486Z,23.52
2018-06-07T03:46:57.500Z,23.60
2018-06-07T03:47:57.531Z,23.65
2018-06-07T03:48:57.554Z,23.50
2018-06-07T03:49:57.578Z,23.64
2018-06-07T03:50:57.615Z,23.62
2018-06-07T03:51:57.646Z,23.72
2018-06-07T03:52:57.674Z,23.75
2018-06-07T03:53:57.684Z,23.61
2018-06-07T03:54:57.708Z,23.27
2018-06-07T03:55:57.741Z,23.39
2018-06-07T03:56:57.769Z,23.26
2018-06-07T03:57:57.799Z,23.67
2018-06-07T03:58:57.813Z,23.58
2018-06-07T03:59:57.860Z,23.67
2018-06-07T04:00:57.901Z,23.76
2018-06-07T04:01:57.914Z,23.52
2018-06-07T04:02:57.950Z,23.49
2018-06-07T04:03:57.954Z,23.49
2018-06-07T04:04:57.975Z,23.49
2018-06-07T04:05:58.002Z,23.60
2018-06-07T04:06:58.041Z,23.62
2018-06-07T04:07:58.058Z,23.61
2018-06-07T04:08:58.088Z,23.61
2018-06-07T04:09:58.106Z,23.29
2018-06-07T04:10:58.125Z,23.58
2018-06-07T04:11:58.151Z,23.47
2018-06-07T04:12:58.184Z,23.52
2018-06-07T04:13:58.204Z,23.67
2018-06-07T04:14:58.237Z,23.58
2018-06-07T04:15:58.265Z,23.67
2018-06-07T04:16:58.322Z,23.68
2018-06-07T04:17:58.314Z,23.72
2018-06-07T04:18:58.339Z,23.52
2018-06-07T04:19:58.371Z,23.58
2018-06-07T04:20:58.397Z,23.70
2018-06-07T04:21:58.449Z,23.62
2018-06-07T04:22:58.472Z,23.58
2018-06-07T04:23:58.485Z,23.70
2018-06-07T04:24:58.518Z,23.75
2018-06-07T04:25:58.541Z,23.61
2018-06-07T04:26:58.553Z,23.70
2018-06-07T04:27:58.580Z,23.49
2018-06-07T04:28:58.603Z,23.67
2018-06-07T04:29:58.631Z,23.68
2018-06-07T04:30:58.662Z,23.86
2018-06-07T04:31:58.714Z,23.87
2018-06-07T04:32:58.713Z,24.02
2018-06-07T04:33:58.774Z,23.61
2018-06-07T04:34:58.767Z,23.70
2018-06-07T04:35:58.817Z,23.49
2018-06-07T04:36:58.829Z,23.46
2018-06-07T04:37:58.856Z,23.60
2018-06-07T04:38:58.886Z,23.71
2018-06-07T04:39:58.902Z,23.55
2018-06-07T04:40:58.920Z,23.61
2018-06-07T04:41:58.955Z,23.62
2018-06-07T04:42:58.993Z,23.68
2018-06-07T04:43:59.086Z,23.62
2018-06-07T04:44:59.023Z,23.68
2018-06-07T04:45:59.048Z,23.77
2018-06-07T04:46:59.097Z,23.76
2018-06-07T04:47:59.106Z,23.68
2018-06-07T04:48:59.124Z,23.75
2018-06-07T04:49:59.158Z,23.70
2018-06-07T04:50:59.185Z,23.75
2018-06-07T04:51:59.210Z,23.79
2018-06-07T04:52:59.235Z,23.67
2018-06-07T04:53:59.256Z,23.53
2018-06-07T04:54:59.290Z,23.52
2018-06-07T04:55:59.311Z,23.62
2018-06-07T04:56:59.347Z,23.61
2018-06-07T04:57:59.365Z,23.68
2018-06-07T04:58:59.395Z,23.62
2018-06-07T04:59:59.418Z,23.49
2018-06-07T05:00:59.450Z,23.53
2018-06-07T05:01:59.517Z,23.55
2018-06-07T05:02:59.502Z,23.58
2018-06-07T05:03:59.526Z,23.68
2018-06-07T05:04:59.556Z,23.77
2018-06-07T05:05:59.575Z,23.80
2018-06-07T05:06:59.606Z,23.70
2018-06-07T05:07:59.627Z,23.71
2018-06-07T05:08:59.657Z,23.70
2018-06-07T05:09:59.677Z,23.64
2018-06-07T05:10:59.707Z,23.65
2018-06-07T05:11:59.736Z,23.65
2018-06-07T05:12:59.766Z,23.55
2018-06-07T05:13:59.788Z,23.64
2018-06-07T05:14:59.811Z,23.72
2018-06-07T05:15:59.838Z,23.86
2018-06-07T05:16:59.867Z,23.92
2018-06-07T05:17:59.891Z,23.97
2018-06-07T05:18:59.930Z,23.87
2018-06-07T05:19:59.946Z,23.79
2018-06-07T05:20:59.974Z,23.67
2018-06-07T05:22:00.008Z,23.83
2018-06-07T05:23:00.030Z,23.92
2018-06-07T05:24:00.061Z,23.86
2018-06-07T05:25:00.074Z,23.89
2018-06-07T05:26:00.103Z,23.72
2018-06-07T05:27:00.135Z,23.75
2018-06-07T05:28:00.162Z,23.65
2018-06-07T05:29:00.192Z,23.72
2018-06-07T05:30:00.216Z,23.72
2018-06-07T05:31:00.235Z,23.75
2018-06-07T05:32:00.289Z,23.83
2018-06-07T05:33:00.291Z,23.72
2018-06-07T05:34:00.326Z,23.72
2018-06-07T05:35:00.345Z,23.75
2018-06-07T05:36:00.364Z,23.67
2018-06-07T05:37:00.396Z,23.75
2018-06-07T05:38:00.482Z,23.55
2018-06-07T05:39:00.448Z,23.50
2018-06-07T05:40:00.473Z,23.75
2018-06-07T05:41:00.501Z,23.68
2018-06-07T05:42:00.528Z,23.65
2018-06-07T05:43:00.570Z,23.61
2018-06-07T05:44:00.581Z,23.62
2018-06-07T05:45:00.608Z,23.49
2018-06-07T05:46:00.628Z,23.60
2018-06-07T05:47:00.658Z,23.61
2018-06-07T05:48:00.691Z,23.60
2018-06-07T05:49:00.713Z,23.64
2018-06-07T05:50:00.746Z,23.58
2018-06-07T05:51:00.766Z,23.75
2018-06-07T05:52:00.877Z,23.61
2018-06-07T05:53:00.821Z,23.57
2018-06-07T05:54:00.848Z,23.61
2018-06-07T05:55:00.867Z,23.50
2018-06-07T05:56:00.917Z,23.68
2018-06-07T05:57:00.922Z,23.71
2018-06-07T05:58:00.948Z,23.72
2018-06-07T05:59:00.973Z,23.72
2018-06-07T06:00:01.001Z,23.61
2018-06-07T06:01:01.028Z,23.60
2018-06-07T06:02:01.052Z,23.67
2018-06-07T06:03:01.109Z,23.53
2018-06-07T06:04:01.129Z,23.75
2018-06-07T06:05:01.137Z,23.65
2018-06-07T06:06:01.164Z,23.57
2018-06-07T06:07:01.187Z,23.60
2018-06-07T06:08:01.220Z,23.65
2018-06-07T06:09:01.233Z,23.90
2018-06-07T06:10:01.273Z,23.97
2018-06-07T06:11:01.292Z,24.01
2018-06-07T06:12:01.321Z,24.02
2018-06-07T06:13:01.348Z,23.83
2018-06-07T06:14:01.371Z,24.04
2018-06-07T06:15:01.413Z,23.90
2018-06-07T06:16:01.421Z,23.95
2018-06-07T06:17:01.473Z,23.95
2018-06-07T06:18:01.480Z,24.02
2018-06-07T06:19:01.508Z,24.10
2018-06-07T06:20:01.532Z,24.01
2018-06-07T06:21:01.555Z,23.90
2018-06-07T06:22:01.587Z,23.92
2018-06-07T06:23:01.617Z,24.05
2018-06-07T06:24:01.636Z,23.79
2018-06-07T06:25:01.669Z,23.71
2018-06-07T06:26:01.686Z,23.98
2018-06-07T06:27:01.786Z,23.67
2018-06-07T06:28:01.749Z,23.85
2018-06-07T06:29:01.797Z,23.67
2018-06-07T06:30:01.798Z,23.50
2018-06-07T06:31:01.826Z,23.61
2018-06-07T06:32:01.856Z,23.61
2018-06-07T06:33:01.873Z,23.71
2018-06-07T06:34:01.899Z,23.71
2018-06-07T06:35:01.935Z,23.75
2018-06-07T06:36:01.970Z,23.83
2018-06-07T06:37:02.000Z,23.85
2018-06-07T06:38:02.012Z,23.89
2018-06-07T06:39:02.048Z,23.95
2018-06-07T06:40:02.098Z,23.94
2018-06-07T06:41:02.098Z,23.62
2018-06-07T06:42:02.119Z,23.55
2018-06-07T06:43:02.163Z,23.76
2018-06-07T06:44:02.167Z,23.94
2018-06-07T06:45:02.198Z,23.92
2018-06-07T06:46:02.221Z,23.89
2018-06-07T06:47:02.251Z,23.90
2018-06-07T06:48:02.275Z,23.70
2018-06-07T06:49:02.303Z,23.82
2018-06-07T06:50:02.323Z,23.60
2018-06-07T06:51:02.352Z,23.71
2018-06-07T06:52:02.381Z,23.72
2018-06-07T06:53:02.411Z,23.71
2018-06-07T06:54:02.443Z,23.72
2018-06-07T06:55:02.465Z,23.83
2018-06-07T06:56:02.494Z,23.86
2018-06-07T06:57:02.545Z,23.94
2018-06-07T06:58:02.542Z,23.95
2018-06-07T06:59:02.567Z,24.08
2018-06-07T07:00:02.597Z,24.20
2018-06-07T07:01:02.620Z,23.86
2018-06-07T07:02:02.646Z,24.02
2018-06-07T07:03:02.671Z,23.86
2018-06-07T07:04:02.708Z,23.89
2018-06-07T07:05:02.740Z,23.86
2018-06-07T07:06:02.750Z,23.92
2018-06-07T07:07:02.790Z,23.72
2018-06-07T07:08:02.805Z,23.62
2018-06-07T07:09:02.839Z,23.79
2018-06-07T07:10:02.863Z,23.95
2018-06-07T07:11:02.886Z,24.07
2018-06-07T07:12:02.912Z,23.90
2018-06-07T07:13:02.942Z,23.92
2018-06-07T07:14:02.969Z,23.87
2018-06-07T07:15:02.995Z,23.77
2018-06-07T07:16:03.018Z,23.65
2018-06-07T07:17:03.047Z,23.64
2018-06-07T07:18:03.069Z,23.83
2018-06-07T07:19:03.122Z,23.89
2018-06-07T07:20:03.123Z,23.68
2018-06-07T07:21:03.151Z,23.71
2018-06-07T07:22:03.180Z,23.65
2018-06-07T07:23:03.213Z,23.82
2018-06-07T07:24:03.232Z,23.83
2018-06-07T07:25:03.260Z,23.67
2018-06-07T07:26:03.285Z,23.67
2018-06-07T07:27:03.310Z,23.71
2018-06-07T07:28:03.338Z,23.75
2018-06-07T07:29:03.358Z,23.72
2018-06-07T07:30:03.398Z,23.87
2018-06-07T07:31:03.419Z,23.90
2018-06-07T07:32:03.439Z,24.00
2018-06-07T07:33:03.471Z,23.82
2018-06-07T07:34:03.494Z,23.92
2018-06-07T07:35:03.525Z,23.70
2018-06-07T07:36:03.548Z,23.65
2018-06-07T07:37:03.588Z,23.70
2018-06-07T07:38:03.598Z,23.72
2018-06-07T07:39:03.661Z,23.86
2018-06-07T07:40:03.654Z,23.97
2018-06-07T07:41:03.679Z,23.72
2018-06-07T07:42:03.719Z,23.92
2018-06-07T07:43:03.735Z,23.87
2018-06-07T07:44:03.789Z,23.83
2018-06-07T07:45:03.786Z,23.76
2018-06-07T07:46:03.810Z,23.76
2018-06-07T07:47:03.876Z,23.97
2018-06-07T07:48:03.867Z,23.92
2018-06-07T07:49:03.891Z,23.94
2018-06-07T07:50:03.918Z,23.90
2018-06-07T07:51:03.955Z,23.89
2018-06-07T07:52:03.972Z,24.12
2018-06-07T07:53:03.996Z,24.05
2018-06-07T07:54:04.029Z,24.12
2018-06-07T07:55:04.050Z,24.07
2018-06-07T07:56:04.080Z,24.08
2018-06-07T07:57:04.107Z,23.98
2018-06-07T07:58:04.127Z,23.95
2018-06-07T07:59:04.189Z,24.07
2018-06-07T08:00:04.190Z,24.05
2018-06-07T08:01:04.214Z,24.07
2018-06-07T08:02:04.235Z,23.98
2018-06-07T08:03:04.269Z,23.92
2018-06-07T08:04:04.291Z,24.08
2018-06-07T08:05:04.316Z,23.82
2018-06-07T08:06:04.344Z,24.00
2018-06-07T08:07:04.372Z,23.86
2018-06-07T08:08:04.401Z,24.00
2018-06-07T08:09:04.418Z,23.97
2018-06-07T08:10:04.459Z,24.10
2018-06-07T08:11:04.478Z,24.17
2018-06-07T08:12:04.497Z,24.14
2018-06-07T08:13:04.527Z,24.24
2018-06-07T08:14:04.561Z,24.08
2018-06-07T08:15:04.603Z,23.95
2018-06-07T08:16:04.615Z,23.98
2018-06-07T08:17:04.650Z,23.94
2018-06-07T08:18:04.662Z,24.14
2018-06-07T08:19:04.697Z,24.10
2018-06-07T08:20:04.713Z,24.07
2018-06-07T08:21:04.753Z,24.05
2018-06-07T08:22:04.782Z,24.16
2018-06-07T08:23:04.808Z,23.95
2018-06-07T08:24:04.818Z,24.02
2018-06-07T08:25:04.847Z,24.07
2018-06-07T08:26:04.876Z,24.10
2018-06-07T08:27:04.905Z,24.16
2018-06-07T08:28:04.929Z,23.97
2018-06-07T08:29:04.954Z,24.08
2018-06-07T08:30:05.016Z,23.98
2018-06-07T08:31:05.009Z,23.92
2018-06-07T08:32:05.055Z,23.86
2018-06-07T08:33:05.060Z,24.01
2018-06-07T08:34:05.085Z,23.90
2018-06-07T08:35:05.118Z,24.05
2018-06-07T08:36:05.148Z,24.07
2018-06-07T08:37:05.169Z,24.20
2018-06-07T08:38:05.197Z,23.97
2018-06-07T08:39:05.220Z,24.08
2018-06-07T08:40:05.252Z,24.14
2018-06-07T08:41:05.282Z,23.97
2018-06-07T08:42:05.303Z,24.04
2018-06-07T08:43:05.329Z,24.14
2018-06-07T08:44:05.357Z,24.10
2018-06-07T08:45:05.388Z,24.04
2018-06-07T08:46:05.419Z,24.05
2018-06-07T08:47:05.435Z,24.26
2018-06-07T08:48:05.464Z,24.04
2018-06-07T08:49:05.491Z,24.01
2018-06-07T08:50:05.516Z,23.90
2018-06-07T08:51:05.549Z,24.13
2018-06-07T08:52:05.566Z,24.08
2018-06-07T08:53:05.594Z,24.16
2018-06-07T08:54:05.626Z,24.12
2018-06-07T08:55:05.649Z,23.87
2018-06-07T08:56:05.676Z,23.97
2018-06-07T08:57:05.702Z,24.08
2018-06-07T08:58:05.726Z,24.20
2018-06-07T08:59:05.753Z,24.20
2018-06-07T09:00:05.783Z,24.37
2018-06-07T09:01:05.810Z,24.34
2018-06-07T09:02:05.834Z,24.20
2018-06-07T09:03:05.862Z,24.16
2018-06-07T09:04:05.888Z,24.14
2018-06-07T09:05:05.915Z,24.22
2018-06-07T09:06:05.942Z,24.32
2018-06-07T09:07:06.064Z,24.20
2018-06-07T09:08:05.992Z,24.24
2018-06-07T09:09:06.020Z,24.23
2018-06-07T09:10:06.053Z,24.23
2018-06-07T09:11:06.085Z,24.37
2018-06-07T09:12:06.102Z,24.27
2018-06-07T09:13:06.128Z,24.37
2018-06-07T09:14:06.153Z,24.47
2018-06-07T09:15:06.189Z,24.53
2018-06-07T09:16:06.214Z,24.41
2018-06-07T09:17:06.237Z,24.57
2018-06-07T09:18:06.265Z,24.42
2018-06-07T09:19:06.288Z,24.53
2018-06-07T09:20:06.327Z,24.56
2018-06-07T09:21:06.352Z,24.67
2018-06-07T09:22:06.375Z,24.59
2018-06-07T09:23:06.399Z,24.49
2018-06-07T09:24:06.425Z,24.32
2018-06-07T09:25:06.457Z,24.41
2018-06-07T09:26:06.539Z,24.47
2018-06-07T09:27:06.525Z,24.35
2018-06-07T09:28:06.535Z,24.23
2018-06-07T09:29:06.563Z,24.23
2018-06-07T09:30:06.589Z,24.35
2018-06-07T09:31:06.611Z,24.38
2018-06-07T09:32:06.646Z,24.23
2018-06-07T09:33:06.671Z,24.26
2018-06-07T09:34:06.701Z,24.31
2018-06-07T09:35:06.726Z,24.37
2018-06-07T09:36:06.770Z,24.47
2018-06-07T09:37:06.777Z,24.60
2018-06-07T09:38:06.797Z,24.63
2018-06-07T09:39:06.827Z,24.42
2018-06-07T09:40:06.865Z,24.39
2018-06-07T09:41:06.886Z,24.37
2018-06-07T09:42:06.907Z,24.49
2018-06-07T09:43:06.935Z,24.60
2018-06-07T09:44:06.961Z,24.69
2018-06-07T09:45:06.987Z,24.60
2018-06-07T09:46:07.023Z,24.60
2018-06-07T09:47:07.045Z,24.71
2018-06-07T09:48:07.076Z,24.41
2018-06-07T09:49:07.101Z,24.39
2018-06-07T09:50:07.125Z,24.39
2018-06-07T09:51:07.154Z,24.41
2018-06-07T09:52:07.179Z,24.35
2018-06-07T09:53:07.205Z,24.41
2018-06-07T09:54:07.238Z,24.61
2018-06-07T09:55:07.262Z,24.57
2018-06-07T09:56:07.293Z,24.49
2018-06-07T09:57:07.308Z,24.38
2018-06-07T09:58:07.386Z,24.52
2018-06-07T09:59:07.371Z,24.63
2018-06-07T10:00:07.395Z,24.76
2018-06-07T10:01:07.433Z,24.90
2018-06-07T10:02:07.453Z,24.95
2018-06-07T10:03:07.481Z,24.77
2018-06-07T10:04:07.514Z,24.64
2018-06-07T10:05:07.530Z,24.82
2018-06-07T10:06:07.559Z,24.80
2018-06-07T10:07:07.590Z,24.76
2018-06-07T10:08:07.608Z,24.71
2018-06-07T10:09:07.639Z,24.80
2018-06-07T10:10:07.668Z,24.47
2018-06-07T10:11:07.696Z,24.47
2018-06-07T10:12:07.819Z,24.67
2018-06-07T10:13:07.741Z,24.59
2018-06-07T10:14:07.793Z,24.57
2018-06-07T10:15:07.800Z,24.53
2018-06-07T10:16:07.830Z,24.41
2018-06-07T10:17:07.855Z,24.38
2018-06-07T10:18:07.884Z,24.64
2018-06-07T10:19:07.914Z,24.77
2018-06-07T10:20:07.935Z,24.68
2018-06-07T10:21:07.958Z,24.68
2018-06-07T10:22:07.993Z,24.82
2018-06-07T10:23:08.020Z,24.95
2018-06-07T10:24:08.051Z,24.97
2018-06-07T10:25:08.090Z,24.98
2018-06-07T10:26:08.095Z,25.01
2018-06-07T10:27:08.127Z,25.00
2018-06-07T10:28:08.156Z,24.90
2018-06-07T10:29:08.204Z,24.79
2018-06-07T10:30:08.211Z,24.71
2018-06-07T10:31:08.234Z,24.85
2018-06-07T10:32:08.263Z,24.95
2018-06-07T10:33:08.285Z,25.12
2018-06-07T10:34:08.328Z,24.92
2018-06-07T10:35:08.352Z,25.06
2018-06-07T10:36:08.376Z,25.15
2018-06-07T10:37:08.404Z,25.10
2018-06-07T10:38:08.422Z,25.07
2018-06-07T10:39:08.479Z,25.28
2018-06-07T10:40:08.487Z,25.20
2018-06-07T10:41:08.504Z,25.19
2018-06-07T10:42:08.553Z,25.16
2018-06-07T10:43:08.564Z,25.22
2018-06-07T10:44:08.589Z,25.27
2018-06-07T10:45:08.627Z,25.32
2018-06-07T10:46:08.644Z,25.24
2018-06-07T10:47:08.678Z,25.34
2018-06-07T10:48:08.696Z,25.31
2018-06-07T10:49:08.722Z,25.28
2018-06-07T10:50:08.806Z,25.31
2018-06-07T10:51:08.787Z,25.25
2018-06-07T10:52:08.850Z,25.01
2018-06-07T10:53:08.838Z,25.19
2018-06-07T10:54:08.862Z,25.22
2018-06-07T10:55:08.893Z,25.20
2018-06-07T10:56:08.936Z,25.19
2018-06-07T10:57:08.950Z,25.19
2018-06-07T10:58:08.969Z,25.20
2018-06-07T10:59:08.998Z,25.24
2018-06-07T11:00:09.023Z,25.47
2018-06-07T11:01:09.059Z,25.47
2018-06-07T11:02:09.087Z,25.42
2018-06-07T11:03:09.144Z,25.39
2018-06-07T11:04:09.139Z,25.38
2018-06-07T11:05:09.165Z,25.57
2018-06-07T11:06:09.195Z,25.47
2018-06-07T11:07:09.235Z,25.47
2018-06-07T11:08:09.252Z,25.47
2018-06-07T11:09:09.273Z,25.34
2018-06-07T11:10:09.298Z,25.32
2018-06-07T11:11:09.331Z,25.27
2018-06-07T11:12:09.359Z,25.39
2018-06-07T11:13:09.386Z,25.39
2018-06-07T11:14:09.413Z,25.54
2018-06-07T11:15:09.436Z,25.64
2018-06-07T11:16:09.479Z,25.61
2018-06-07T11:17:09.502Z,25.54
2018-06-07T11:18:09.521Z,25.54
2018-06-07T11:19:09.554Z,25.56
2018-06-07T11:20:09.577Z,25.56
2018-06-07T11:21:09.612Z,25.57
2018-06-07T11:22:09.640Z,25.61
2018-06-07T11:23:09.659Z,25.47
2018-06-07T11:24:09.691Z,25.49
2018-06-07T11:25:09.710Z,25.49
2018-06-07T11:26:09.753Z,25.56
2018-06-07T11:27:09.780Z,25.52
2018-06-07T11:28:09.797Z,25.56
2018-06-07T11:29:09.834Z,25.46
2018-06-07T11:30:09.856Z,25.34
2018-06-07T11:31:09.887Z,25.31
2018-06-07T11:32:09.912Z,25.49
2018-06-07T11:33:09.929Z,25.53
2018-06-07T11:34:09.961Z,25.53
2018-06-07T11:35:10.008Z,25.61
2018-06-07T11:36:10.017Z,25.62
2018-06-07T11:37:10.046Z,25.69
2018-06-07T11:38:10.083Z,25.50
2018-06-07T11:39:10.109Z,25.54
2018-06-07T11:40:10.134Z,25.53
2018-06-07T11:41:10.166Z,25.61
2018-06-07T11:42:10.186Z,25.71
2018-06-07T11:43:10.217Z,25.80
2018-06-07T11:44:10.246Z,25.90
2018-06-07T11:45:10.269Z,25.98
2018-06-07T11:46:10.295Z,25.94
2018-06-07T11:47:10.322Z,26.01
2018-06-07T11:48:10.383Z,25.99
2018-06-07T11:49:10.389Z,25.94
2018-06-07T11:50:10.418Z,26.04
2018-06-07T11:51:10.435Z,26.05
2018-06-07T11:52:10.461Z,25.99
2018-06-07T11:53:10.492Z,25.72
2018-06-07T11:54:10.527Z,25.75
2018-06-07T11:55:10.545Z,25.79
2018-06-07T11:56:10.581Z,25.89
2018-06-07T11:57:10.603Z,25.99
2018-06-07T11:58:10.640Z,25.98
2018-06-07T11:59:10.666Z,25.93
2018-06-07T12:00:10.685Z,26.01
2018-06-07T12:01:10.712Z,25.87
2018-06-07T12:02:10.740Z,25.83
2018-06-07T12:03:10.773Z,25.98
2018-06-07T12:04:10.794Z,25.94
2018-06-07T12:05:10.826Z,26.18
2018-06-07T12:06:10.856Z,26.17
2018-06-07T12:07:10.876Z,26.12
2018-06-07T12:08:10.911Z,26.22
2018-06-07T12:09:10.960Z,26.09
2018-06-07T12:10:10.966Z,26.18
2018-06-07T12:11:10.993Z,26.09
2018-06-07T12:12:11.017Z,26.01
2018-06-07T12:13:11.058Z,25.89
2018-06-07T12:14:11.090Z,25.94
2018-06-07T12:15:11.110Z,25.98
2018-06-07T12:16:11.138Z,26.02
2018-06-07T12:17:11.165Z,25.94
2018-06-07T12:18:11.195Z,25.97
2018-06-07T12:19:11.216Z,26.11
2018-06-07T12:20:11.247Z,26.15
2018-06-07T12:21:11.276Z,26.21
2018-06-07T12:22:11.299Z,26.36
2018-06-07T12:23:11.332Z,26.31
2018-06-07T12:24:11.357Z,26.35
2018-06-07T12:25:11.438Z,26.29
2018-06-07T12:26:11.412Z,26.27
2018-06-07T12:27:11.442Z,26.18
2018-06-07T12:28:11.497Z,26.28
2018-06-07T12:29:11.504Z,26.29
2018-06-07T12:30:11.530Z,26.20
2018-06-07T12:31:11.555Z,26.29
2018-06-07T12:32:11.620Z,26.43
2018-06-07T12:33:11.609Z,26.47
2018-06-07T12:34:11.641Z,26.44
2018-06-07T12:35:11.669Z,26.61
2018-06-07T12:36:11.707Z,26.57
2018-06-07T12:37:11.728Z,26.46
2018-06-07T12:38:11.758Z,26.49
2018-06-07T12:39:11.783Z,26.46
2018-06-07T12:40:11.966Z,26.57
2018-06-07T12:41:11.881Z,26.50
2018-06-07T12:42:11.866Z,26.62
2018-06-07T12:43:11.897Z,26.73
2018-06-07T12:44:11.919Z,26.74
2018-06-07T12:45:11.973Z,26.79
2018-06-07T12:46:11.983Z,26.84
2018-06-07T12:47:12.007Z,26.83
2018-06-07T12:48:12.040Z,26.87
2018-06-07T12:49:12.066Z,26.83
2018-06-07T12:50:12.124Z,26.67
2018-06-07T12:51:12.128Z,26.65
2018-06-07T12:52:12.150Z,26.62
2018-06-07T12:53:12.181Z,26.58